Time;durP1;ratioP1;P1;durP2;ratioP2;P2;SDS_P1;SDS_P2;PMS_P1;PMS_P2;Temp;Humidity;BMP_temperature;BMP_pressure;BME280_temperature;BME280_humidity;BME280_pressure;Samples;Min_cycle;Max_cycle;Signal;HPM_P1;HPM_P2
2022/02/20 00:01:36;;;;;;;5.70;1.02;;;;;;;9.64;54.34;100788.47;4991493;28;124385;-70
2022/02/20 00:04:03;;;;;;;3.75;0.80;;;;;;;9.61;54.38;100788.63;4996153;28;124078;-70
2022/02/20 00:06:31;;;;;;;8.50;1.10;;;;;;;9.59;54.91;100798.38;4994955;28;109393;-70
2022/02/20 00:08:58;;;;;;;3.90;1.00;;;;;;;9.59;54.47;100801.03;4995728;28;108229;-71
2022/02/20 00:11:25;;;;;;;6.25;1.25;;;;;;;9.55;54.62;100806.47;4992442;28;123908;-70
2022/02/20 00:13:52;;;;;;;6.45;1.20;;;;;;;9.54;54.71;100810.00;4996373;28;123918;-70
2022/02/20 00:16:20;;;;;;;5.28;0.95;;;;;;;9.53;54.71;100840.03;4996961;28;109432;-70
2022/02/20 00:18:49;;;;;;;2.17;0.65;;;;;;;9.53;54.72;100833.84;4994118;28;109749;-70
2022/02/20 00:21:19;;;;;;;5.78;0.80;;;;;;;9.52;54.84;100856.81;4993443;28;123800;-70
2022/02/20 00:23:46;;;;;;;5.55;1.00;;;;;;;9.50;54.30;100844.59;4995868;28;124970;-70
2022/02/20 00:26:13;;;;;;;9.35;1.20;;;;;;;9.48;54.52;100857.00;4994028;28;109125;-71
2022/02/20 00:28:40;;;;;;;3.85;1.25;;;;;;;9.46;54.70;100870.28;4993580;28;108591;-71
2022/02/20 00:31:08;;;;;;;6.80;0.90;;;;;;;9.47;54.66;100881.72;4992467;28;124173;-70
2022/02/20 00:33:35;;;;;;;7.30;1.30;;;;;;;9.45;54.63;100889.69;4994578;28;122801;-70
2022/02/20 00:36:02;;;;;;;6.28;1.00;;;;;;;9.45;54.86;100905.56;4995516;28;108767;-71
2022/02/20 00:38:31;;;;;;;3.65;1.00;;;;;;;9.44;54.78;100898.56;4995524;28;107713;-70
2022/02/20 00:40:58;;;;;;;4.60;1.08;;;;;;;9.45;54.73;100905.56;4992477;28;123983;-71
2022/02/20 00:43:25;;;;;;;3.65;1.05;;;;;;;9.45;54.71;100921.41;4994953;28;124007;-71
2022/02/20 00:45:53;;;;;;;5.18;1.10;;;;;;;9.42;54.66;100929.47;4993436;28;110363;-71
2022/02/20 00:48:21;;;;;;;5.60;0.90;;;;;;;9.41;54.56;100940.97;4993464;28;110119;-70
2022/02/20 00:50:49;;;;;;;3.58;0.75;;;;;;;9.40;54.58;100948.94;4993454;28;123512;-70
2022/02/20 00:53:17;;;;;;;5.63;1.10;;;;;;;9.38;54.62;100956.97;4994162;28;122765;-70
2022/02/20 00:55:46;;;;;;;4.80;0.90;;;;;;;9.35;54.45;100957.06;4993539;28;110263;-71
2022/02/20 00:58:13;;;;;;;7.00;0.90;;;;;;;9.33;54.61;100964.19;4994809;28;107700;-70
2022/02/20 01:00:41;;;;;;;6.60;0.90;;;;;;;9.31;54.67;100976.59;4993597;28;123398;-70
2022/02/20 01:03:09;;;;;;;3.88;0.80;;;;;;;9.29;54.55;100989.03;4994476;28;124083;-70
2022/02/20 01:05:36;;;;;;;4.30;0.90;;;;;;;9.26;54.89;100989.13;4993327;28;109337;-70
2022/02/20 01:08:05;;;;;;;4.00;0.60;;;;;;;9.24;54.67;101001.53;4992703;28;109194;-70
2022/02/20 01:10:33;;;;;;;3.35;1.05;;;;;;;9.22;54.76;100995.44;4991287;28;123945;-70
2022/02/20 01:13:01;;;;;;;5.28;0.80;;;;;;;9.21;54.71;101012.22;4993808;28;124012;-70
2022/02/20 01:15:28;;;;;;;4.40;0.80;;;;;;;9.19;54.31;101003.47;4991681;28;109222;-70
2022/02/20 01:17:57;;;;;;;5.32;1.10;;;;;;;9.18;54.87;101007.06;4994527;28;108270;-70
2022/02/20 01:20:25;;;;;;;2.25;0.90;;;;;;;9.15;54.47;101003.63;4991572;28;124430;-70
2022/02/20 01:22:52;;;;;;;5.57;1.38;;;;;;;9.15;54.61;101019.47;4993059;28;124269;-70
2022/02/20 01:25:20;;;;;;;7.05;1.25;;;;;;;9.13;54.98;101016.00;4992688;28;109459;-70
2022/02/20 01:27:47;;;;;;;4.47;1.17;;;;;;;9.13;54.93;101010.72;4994698;28;109404;-70
2022/02/20 01:30:15;;;;;;;6.20;1.10;;;;;;;9.12;54.55;101014.28;4992940;28;124763;-70
2022/02/20 01:32:42;;;;;;;4.38;1.00;;;;;;;9.11;55.01;101017.81;4993096;28;123441;-70
2022/02/20 01:35:10;;;;;;;6.03;1.30;;;;;;;9.09;54.88;101019.66;4991946;28;110447;-70
2022/02/20 01:37:37;;;;;;;4.25;1.00;;;;;;;9.09;54.82;101024.09;4993949;28;109445;-70
2022/02/20 01:40:07;;;;;;;5.72;0.90;;;;;;;9.08;54.65;101031.16;4992896;28;123529;-70
2022/02/20 01:42:34;;;;;;;5.03;1.20;;;;;;;9.08;54.80;101033.81;4993374;28;122735;-70
2022/02/20 01:45:01;;;;;;;5.43;1.10;;;;;;;9.06;55.19;101040.94;4993934;28;109219;-70
2022/02/20 01:47:32;;;;;;;4.68;0.80;;;;;;;9.06;55.08;101046.22;4977622;28;108157;-70
2022/02/20 01:49:59;;;;;;;4.05;0.90;;;;;;;9.06;55.21;101046.22;4991010;28;124283;-70
2022/02/20 01:52:27;;;;;;;4.95;1.00;;;;;;;9.06;54.87;101051.50;4993196;28;123808;-70
2022/02/20 01:54:59;;;;;;;5.90;1.02;;;;;;;9.07;54.84;101053.22;4993930;28;108442;-70
2022/02/20 01:57:38;;;;;;;6.47;0.90;;;;;;;9.07;54.86;101058.50;4993693;28;108402;-70
2022/02/20 02:00:18;;;;;;;2.83;0.80;;;;;;;9.05;54.79;101060.31;4991879;28;122946;-70
2022/02/20 02:02:52;;;;;;;4.15;0.82;;;;;;;9.04;54.76;101069.19;4992978;28;122909;-70
2022/02/20 02:05:45;;;;;;;1.70;0.82;;;;;;;9.03;55.02;101061.31;4994730;28;112250;-70
2022/02/20 02:08:15;;;;;;;2.58;0.80;;;;;;;9.01;55.05;101058.72;4993532;28;108053;-70
2022/02/20 02:11:05;;;;;;;3.10;0.98;;;;;;;9.01;54.83;101064.00;4992230;28;125289;-70
2022/02/20 02:14:02;;;;;;;3.05;0.90;;;;;;;9.01;54.75;101074.56;4955872;28;124740;-70
2022/02/20 02:16:41;;;;;;;3.35;1.00;;;;;;;9.00;54.59;101067.53;4995220;28;110829;-70
2022/02/20 02:19:26;;;;;;;1.13;0.68;;;;;;;8.98;54.81;101087.88;4994663;28;109865;-70
2022/02/20 02:22:23;;;;;;;2.13;0.70;;;;;;;8.99;54.94;101086.97;4992371;28;124464;-70
2022/02/20 02:25:09;;;;;;;3.38;0.70;;;;;;;8.98;54.92;101090.50;4994537;28;124799;-70
2022/02/20 02:27:47;;;;;;;3.60;0.70;;;;;;;8.99;55.03;101086.97;4992387;28;110157;-70
2022/02/20 02:30:32;;;;;;;2.50;0.88;;;;;;;9.00;54.74;101090.47;4992290;28;108609;-70
2022/02/20 02:32:59;;;;;;;3.25;0.88;;;;;;;8.98;54.88;101085.22;4992037;28;123620;-70
2022/02/20 02:35:26;;;;;;;1.60;0.60;;;;;;;8.98;54.66;101074.66;5008984;28;123405;-70
2022/02/20 02:37:54;;;;;;;1.60;0.70;;;;;;;8.98;55.06;101069.38;4991320;28;109996;-70
2022/02/20 02:40:23;;;;;;;2.42;0.77;;;;;;;8.99;54.71;101081.69;4990871;28;109659;-70
2022/02/20 02:42:51;;;;;;;4.15;0.90;;;;;;;9.00;55.05;101083.41;5008924;28;123766;-70
2022/02/20 02:45:18;;;;;;;3.60;0.90;;;;;;;9.00;54.92;101080.75;4991253;28;124263;-70
2022/02/20 02:47:47;;;;;;;3.90;0.90;;;;;;;9.02;55.01;101076.28;4992698;28;108650;-70
2022/02/20 02:50:16;;;;;;;3.67;1.05;;;;;;;9.04;54.75;101087.69;4991932;28;108548;-70
2022/02/20 02:52:43;;;;;;;4.03;1.10;;;;;;;9.06;54.96;101083.19;4991116;28;123170;-70
2022/02/20 02:55:10;;;;;;;4.20;1.20;;;;;;;9.08;55.08;101081.38;4990337;28;124413;-70
2022/02/20 02:57:38;;;;;;;4.05;1.10;;;;;;;9.10;55.16;101083.97;4991299;28;109311;-70
2022/02/20 03:00:08;;;;;;;3.85;1.30;;;;;;;9.12;55.08;101077.69;4992256;28;109050;-70
2022/02/20 03:02:35;;;;;;;3.63;1.13;;;;;;;9.12;54.66;101082.97;4992950;28;124060;-70
2022/02/20 03:05:04;;;;;;;6.90;1.40;;;;;;;9.13;54.90;101074.13;4993264;28;124713;-70
2022/02/20 03:07:34;;;;;;;2.22;1.30;;;;;;;9.16;55.06;101075.81;5009138;28;108358;-70
2022/02/20 03:10:02;;;;;;;3.53;1.40;;;;;;;9.15;54.98;101082.88;4992181;28;108886;-70
2022/02/20 03:12:31;;;;;;;4.88;1.50;;;;;;;9.16;54.79;101078.47;4991986;28;124114;-70
2022/02/20 03:14:58;;;;;;;4.90;1.70;;;;;;;9.15;54.76;101076.72;4991753;28;123793;-70
2022/02/20 03:17:26;;;;;;;7.72;2.03;;;;;;;9.14;54.71;101086.44;4991281;28;108998;-70
2022/02/20 03:19:54;;;;;;;3.10;1.88;;;;;;;9.12;54.69;101088.28;4990311;28;110574;-70
2022/02/20 03:22:21;;;;;;;4.90;1.70;;;;;;;9.12;54.83;101088.28;4991286;28;123328;-71
2022/02/20 03:24:49;;;;;;;4.15;1.40;;;;;;;9.12;54.58;101098.84;4990408;28;124206;-70
2022/02/20 03:27:17;;;;;;;5.03;1.35;;;;;;;9.11;54.70;101097.09;4992258;28;108083;-70
2022/02/20 03:29:45;;;;;;;3.00;1.70;;;;;;;9.10;54.56;101090.09;4991536;28;108321;-70
2022/02/20 03:32:12;;;;;;;6.10;1.50;;;;;;;9.11;54.77;101086.53;4992562;28;124399;-69
2022/02/20 03:34:39;;;;;;;3.28;1.13;;;;;;;9.11;54.77;101075.09;4991942;28;123264;-70
2022/02/20 03:37:07;;;;;;;3.47;1.35;;;;;;;9.11;54.83;101081.25;4991829;28;108279;-70
2022/02/20 03:39:37;;;;;;;3.15;1.45;;;;;;;9.11;54.92;101081.25;4991879;28;108182;-70
2022/02/20 03:42:10;;;;;;;2.55;1.00;;;;;;;9.09;54.92;101077.78;4991431;28;98871;-70
2022/02/20 03:44:54;;;;;;;4.07;0.80;;;;;;;9.06;54.64;101067.34;4991025;28;123700;-69
2022/02/20 03:47:23;;;;;;;2.17;0.85;;;;;;;9.04;54.58;101063.03;4980341;28;108593;-70
2022/02/20 03:49:55;;;;;;;4.55;1.13;;;;;;;9.02;54.72;101073.63;4991398;28;108371;-70
2022/02/20 03:52:49;;;;;;;2.90;0.98;;;;;;;9.00;54.58;101072.81;4990264;28;125637;-70
2022/02/20 03:55:22;;;;;;;3.92;0.85;;;;;;;8.99;54.68;101059.69;4991585;28;126989;-70
2022/02/20 03:57:53;;;;;;;3.92;1.00;;;;;;;8.98;54.68;101060.59;4991765;28;108275;-71
2022/02/20 04:00:38;;;;;;;3.13;0.85;;;;;;;8.95;54.58;101064.22;4993455;28;109913;-70
2022/02/20 04:03:37;;;;;;;3.13;0.80;;;;;;;8.92;54.84;101053.75;4983024;28;125133;-70
2022/02/20 04:06:06;;;;;;;4.38;0.80;;;;;;;8.90;54.79;101055.59;4991678;28;123583;-70
2022/02/20 04:08:34;;;;;;;6.38;1.00;;;;;;;8.89;54.50;101043.28;4991051;28;109110;-70
2022/02/20 04:11:06;;;;;;;4.82;0.98;;;;;;;8.87;54.68;101046.00;4991321;28;109452;-70
2022/02/20 04:13:38;;;;;;;3.42;1.20;;;;;;;8.87;54.57;101039.84;4990997;28;123715;-70
2022/02/20 04:16:10;;;;;;;2.95;1.20;;;;;;;8.84;54.68;101045.25;4991011;28;124215;-70
2022/02/20 04:18:40;;;;;;;4.68;1.23;;;;;;;8.83;54.86;101038.22;4983595;28;108524;-70
2022/02/20 04:21:16;;;;;;;5.00;1.80;;;;;;;8.80;54.83;101031.28;4990994;28;108261;-70
2022/02/20 04:23:44;;;;;;;4.07;1.63;;;;;;;8.80;54.89;101038.31;4990851;28;123402;-70
2022/02/20 04:26:15;;;;;;;3.72;1.60;;;;;;;8.80;54.66;101048.88;4990893;28;123301;-70
2022/02/20 04:28:42;;;;;;;4.88;1.88;;;;;;;8.80;54.53;101027.75;5008058;28;108529;-70
2022/02/20 04:31:11;;;;;;;4.90;2.00;;;;;;;8.81;54.84;101029.50;4990648;28;108209;-70
2022/02/20 04:33:39;;;;;;;7.30;2.17;;;;;;;8.81;55.13;101024.22;4990385;28;123586;-70
2022/02/20 04:36:06;;;;;;;6.40;2.30;;;;;;;8.80;55.03;101022.47;5007333;28;123042;-70
2022/02/20 04:38:34;;;;;;;4.80;2.20;;;;;;;8.79;54.90;101015.47;4989979;28;109587;-70
2022/02/20 04:41:07;;;;;;;4.63;2.28;;;;;;;8.77;55.23;101008.47;4990495;28;109434;-70
2022/02/20 04:43:36;;;;;;;4.72;2.10;;;;;;;8.79;54.84;100994.34;4991827;28;123141;-70
2022/02/20 04:46:08;;;;;;;6.85;2.60;;;;;;;8.79;54.74;100989.94;4994243;28;124205;-70
2022/02/20 04:48:36;;;;;;;6.85;3.03;;;;;;;8.79;55.19;100983.78;4994658;28;108097;-70
2022/02/20 04:51:08;;;;;;;6.55;2.70;;;;;;;8.79;54.81;100981.16;4995184;28;108177;-70
2022/02/20 04:53:35;;;;;;;7.07;2.75;;;;;;;8.79;55.18;100973.22;4993879;28;123161;-70
2022/02/20 04:56:03;;;;;;;6.00;2.70;;;;;;;8.79;55.16;100965.31;4993590;28;123619;-70
2022/02/20 04:58:37;;;;;;;8.32;3.10;;;;;;;8.79;54.89;100967.94;4994143;28;109475;-70
2022/02/20 05:01:15;;;;;;;9.15;3.17;;;;;;;8.76;55.02;100964.50;4994064;28;110038;-70
2022/02/20 05:04:11;;;;;;;7.30;3.00;;;;;;;8.76;55.12;100959.22;4993931;28;123197;-70
2022/02/20 05:06:47;;;;;;;6.13;2.85;;;;;;;8.74;55.16;100961.06;4993755;28;127303;-70
2022/02/20 05:09:19;;;;;;;9.52;3.38;;;;;;;8.74;55.00;100966.34;4994170;28;108235;-70
2022/02/20 05:11:56;;;;;;;7.63;3.28;;;;;;;8.73;55.24;100954.03;4993151;28;111514;-70
2022/02/20 05:14:23;;;;;;;6.95;3.10;;;;;;;8.72;55.02;100944.41;4995304;28;124927;-70
2022/02/20 05:16:51;;;;;;;6.40;3.33;;;;;;;8.73;55.12;100937.34;4993906;28;123078;-70
2022/02/20 05:19:29;;;;;;;11.77;3.90;;;;;;;8.72;55.22;100925.91;4994091;28;108776;-70
2022/02/20 05:21:57;;;;;;;7.38;3.63;;;;;;;8.70;55.12;100922.47;4993281;28;108126;-70
2022/02/20 05:24:30;;;;;;;8.55;3.67;;;;;;;8.71;55.37;100912.78;4992856;28;123357;-70
2022/02/20 05:26:59;;;;;;;8.63;3.60;;;;;;;8.70;55.29;100896.06;4993430;28;122677;-70
2022/02/20 05:29:34;;;;;;;7.90;3.53;;;;;;;8.70;55.42;100889.91;4994064;28;108150;-70
2022/02/20 05:32:03;;;;;;;8.02;3.53;;;;;;;8.69;55.45;100896.97;4993335;28;109555;-70
2022/02/20 05:34:46;;;;;;;11.20;3.55;;;;;;;8.68;55.32;100884.72;4994081;28;123570;-70
2022/02/20 05:37:15;;;;;;;7.93;3.78;;;;;;;8.69;55.65;100889.06;4993060;28;123673;-70
2022/02/20 05:39:43;;;;;;;9.77;3.42;;;;;;;8.69;55.97;100882.91;4993436;28;108696;-71
2022/02/20 05:42:11;;;;;;;6.93;3.38;;;;;;;8.68;55.68;100866.22;4993466;28;110347;-70
2022/02/20 05:44:44;;;;;;;10.13;3.65;;;;;;;8.68;56.08;100845.09;4992884;28;126659;-71
2022/02/20 05:47:14;;;;;;;10.20;3.75;;;;;;;8.68;55.94;100834.53;4991712;28;124995;-71
2022/02/20 05:49:44;;;;;;;9.30;3.75;;;;;;;8.69;56.30;100815.13;4992506;28;109662;-71
2022/02/20 05:52:11;;;;;;;8.68;3.58;;;;;;;8.70;56.20;100795.75;4993199;28;108844;-71
2022/02/20 05:54:43;;;;;;;8.88;3.13;;;;;;;8.72;56.21;100787.72;4992741;28;123244;-71
2022/02/20 05:57:11;;;;;;;11.15;3.28;;;;;;;8.72;56.30;100783.34;4993142;28;123578;-71
2022/02/20 05:59:46;;;;;;;12.00;3.60;;;;;;;8.74;56.50;100765.66;4992920;28;108852;-71
2022/02/20 06:02:14;;;;;;;9.00;3.20;;;;;;;8.75;56.71;100750.66;4992114;28;109351;-71
2022/02/20 06:04:42;;;;;;;8.02;3.03;;;;;;;8.77;56.70;100739.09;4992817;28;123945;-71
2022/02/20 06:07:28;;;;;;;11.57;2.95;;;;;;;8.81;56.43;100728.44;5010048;28;122275;-71
2022/02/20 06:10:33;;;;;;;12.55;3.30;;;;;;;8.84;56.81;100723.03;4988537;28;109329;-71
2022/02/20 06:13:17;;;;;;;14.88;3.55;;;;;;;8.87;57.09;100723.78;4992945;28;108517;-71
2022/02/20 06:16:07;;;;;;;10.80;3.05;;;;;;;8.92;56.96;100715.66;4987824;28;124618;-71
2022/02/20 06:18:52;;;;;;;;;;;;;;;8.94;56.67;100709.38;4995250;28;125583;-71
2022/02/20 06:21:31;;;;;;;9.18;2.75;;;;;;;9.00;56.93;100700.34;4978103;28;109132;-72
2022/02/20 06:24:14;;;;;;;9.40;2.38;;;;;;;9.05;57.24;100700.19;4993481;28;108939;-71
2022/02/20 06:26:55;;;;;;;11.23;2.70;;;;;;;9.10;57.18;100688.50;4992175;28;122909;-71
2022/02/20 06:29:22;;;;;;;11.35;2.60;;;;;;;9.15;57.47;100690.94;4992252;28;123165;-71
2022/02/20 06:31:49;;;;;;;11.13;3.08;;;;;;;9.22;57.84;100699.47;4992231;28;108326;-71
2022/02/20 06:34:16;;;;;;;11.02;2.50;;;;;;;9.27;57.62;100684.31;4993100;28;108375;-72
2022/02/20 06:36:44;;;;;;;10.68;2.30;;;;;;;9.33;57.60;100694.59;4992810;28;122853;-72
2022/02/20 06:39:11;;;;;;;8.60;2.30;;;;;;;9.39;57.83;100694.34;4992214;28;123479;-72
2022/02/20 06:41:38;;;;;;;14.30;2.83;;;;;;;9.44;57.87;100692.38;4991751;28;109302;-72
2022/02/20 06:44:06;;;;;;;13.15;2.45;;;;;;;9.49;58.29;100695.69;4992459;28;109145;-72
2022/02/20 06:46:36;;;;;;;13.25;2.67;;;;;;;9.54;58.07;100683.09;4992751;28;125336;-73
2022/02/20 06:49:08;;;;;;;14.90;2.92;;;;;;;9.61;58.22;100677.56;4992016;28;123471;-72
2022/02/20 06:52:01;;;;;;;12.85;2.30;;;;;;;9.68;58.21;100676.34;4992715;28;109252;-72
2022/02/20 06:54:57;;;;;;;;;;;;;;;9.72;58.11;100681.44;4973924;28;109520;-72
2022/02/20 06:57:38;;;;;;;9.60;2.30;;;;;;;9.80;58.13;100683.75;4992406;28;124557;-72
2022/02/20 07:00:10;;;;;;;10.45;2.30;;;;;;;9.86;58.33;100688.75;4992184;28;124688;-72
2022/02/20 07:02:39;;;;;;;11.07;2.30;;;;;;;9.92;58.53;100685.84;4993895;28;109582;-72
2022/02/20 07:05:08;;;;;;;11.20;2.30;;;;;;;10.00;58.73;100684.63;4992872;28;108717;-72
2022/02/20 07:07:37;;;;;;;16.10;2.28;;;;;;;10.08;58.99;100682.53;4990150;28;123909;-72
2022/02/20 07:10:07;;;;;;;13.88;2.60;;;;;;;10.17;58.96;100681.22;4990643;28;123726;-72
2022/02/20 07:12:36;;;;;;;14.98;2.33;;;;;;;10.23;59.38;100676.53;4993966;28;109446;-73
2022/02/20 07:15:04;;;;;;;10.77;2.58;;;;;;;10.32;59.26;100686.72;4994506;28;108840;-72
2022/02/20 07:17:31;;;;;;;9.38;2.42;;;;;;;10.41;59.25;100679.25;4991256;28;124612;-73
2022/02/20 07:20:03;;;;;;;11.43;2.97;;;;;;;10.48;59.16;100676.25;4990417;28;124033;-73
2022/02/20 07:22:35;;;;;;;7.30;2.35;;;;;;;10.56;59.29;100675.88;4992546;28;109456;-73
2022/02/20 07:25:03;;;;;;;15.10;3.17;;;;;;;10.64;59.50;100676.41;4978099;28;109298;-73
2022/02/20 07:27:42;;;;;;;14.32;3.15;;;;;;;10.71;59.48;100683.09;4994295;28;125389;-73
2022/02/20 07:30:12;;;;;;;8.82;2.40;;;;;;;10.78;59.66;100682.81;4990787;28;123699;-73
2022/02/20 07:32:40;;;;;;;6.68;2.50;;;;;;;10.84;59.58;100672.75;4992387;28;109906;-73
2022/02/20 07:35:08;;;;;;;14.07;2.75;;;;;;;10.91;59.62;100676.84;4991539;28;109849;-73
2022/02/20 07:37:35;;;;;;;11.43;2.67;;;;;;;10.99;59.92;100668.50;4993664;28;124518;-72
2022/02/20 07:40:04;;;;;;;9.68;2.05;;;;;;;11.06;59.78;100672.56;4993258;28;124392;-73
2022/02/20 07:42:31;;;;;;;11.45;1.80;;;;;;;11.12;59.80;100671.41;4992328;28;109476;-73
2022/02/20 07:44:59;;;;;;;10.02;2.22;;;;;;;11.20;59.90;100668.38;4991928;28;109222;-73
2022/02/20 07:47:27;;;;;;;9.48;1.55;;;;;;;11.27;60.09;100667.13;4992591;28;124011;-73
2022/02/20 07:49:54;;;;;;;9.02;1.90;;;;;;;11.32;59.86;100673.06;4992060;28;122678;-73
2022/02/20 07:52:21;;;;;;;7.88;1.52;;;;;;;11.39;60.16;100663.81;4992000;28;108969;-73
2022/02/20 07:54:48;;;;;;;3.90;1.40;;;;;;;11.45;59.86;100655.59;4991258;28;108660;-73
2022/02/20 07:57:15;;;;;;;8.55;1.67;;;;;;;11.53;60.11;100649.00;4990580;28;123955;-73
2022/02/20 07:59:42;;;;;;;5.47;1.15;;;;;;;11.58;60.16;100641.66;4991653;28;123508;-72
2022/02/20 08:02:09;;;;;;;6.97;1.35;;;;;;;11.65;60.36;100637.75;4992826;28;108889;-73
2022/02/20 08:04:37;;;;;;;9.52;1.95;;;;;;;11.69;60.24;100644.59;4991379;28;109004;-73
2022/02/20 08:07:08;;;;;;;4.75;1.33;;;;;;;11.76;60.33;100640.69;4990782;28;123975;-73
2022/02/20 08:09:35;;;;;;;4.63;1.20;;;;;;;11.81;60.21;100633.34;4991259;28;124651;-72
2022/02/20 08:12:03;;;;;;;5.00;1.50;;;;;;;11.86;60.44;100639.25;4990648;28;110116;-72
2022/02/20 08:14:30;;;;;;;3.67;1.15;;;;;;;11.91;60.42;100644.34;4991443;28;108719;-72
2022/02/20 08:16:58;;;;;;;4.45;1.38;;;;;;;11.94;60.33;100636.25;4990969;28;124221;-72
2022/02/20 08:19:25;;;;;;;3.28;1.30;;;;;;;11.99;60.20;100638.63;4996338;28;124176;-72
2022/02/20 08:21:52;;;;;;;6.18;1.40;;;;;;;12.02;60.42;100635.81;4996261;28;110285;-73
2022/02/20 08:24:19;;;;;;;4.85;1.52;;;;;;;12.06;60.61;100632.06;4994482;28;110491;-72
2022/02/20 08:26:47;;;;;;;7.75;1.33;;;;;;;12.10;60.60;100638.91;4993821;28;124069;-72
2022/02/20 08:29:21;;;;;;;4.60;1.58;;;;;;;12.14;60.66;100626.31;4995020;28;123371;-72
2022/02/20 08:31:50;;;;;;;5.15;1.35;;;;;;;12.17;60.44;100632.31;4996022;28;109636;-72
2022/02/20 08:34:17;;;;;;;3.88;1.30;;;;;;;12.21;60.46;100614.44;4993862;28;108931;-72
2022/02/20 08:36:44;;;;;;;5.00;1.38;;;;;;;12.25;60.34;100614.16;4993472;28;125271;-71
2022/02/20 08:39:11;;;;;;;5.43;1.42;;;;;;;12.28;60.56;100615.78;4994217;28;124038;-72
2022/02/20 08:41:39;;;;;;;5.20;1.30;;;;;;;12.32;60.68;100627.09;4995282;28;109521;-72
2022/02/20 08:44:06;;;;;;;3.90;1.15;;;;;;;12.37;60.73;100625.03;4997325;28;109132;-71
2022/02/20 08:46:33;;;;;;;8.13;1.63;;;;;;;12.42;60.50;100636.28;4993293;28;123873;-72
2022/02/20 08:49:01;;;;;;;4.88;1.10;;;;;;;12.46;60.62;100624.53;4994279;28;123937;-72
2022/02/20 08:51:28;;;;;;;5.40;1.40;;;;;;;12.49;60.57;100619.06;4994745;28;109928;-72
2022/02/20 08:53:55;;;;;;;4.70;1.60;;;;;;;12.51;60.70;100627.78;4996351;28;109056;-72
2022/02/20 08:56:26;;;;;;;5.07;1.33;;;;;;;12.57;60.54;100631.91;4993250;28;124312;-71
2022/02/20 08:58:55;;;;;;;5.03;1.45;;;;;;;12.59;60.70;100633.50;4995580;28;123984;-71
2022/02/20 09:01:24;;;;;;;6.43;1.48;;;;;;;12.62;60.40;100641.31;4996006;28;109239;-71
2022/02/20 09:03:52;;;;;;;5.80;1.58;;;;;;;12.65;60.44;100619.88;4996212;28;109230;-71
2022/02/20 09:06:19;;;;;;;5.03;1.45;;;;;;;12.69;60.63;100619.69;4993241;28;124112;-71
2022/02/20 09:08:47;;;;;;;4.28;1.42;;;;;;;12.72;60.49;100619.53;4993255;28;123683;-71
2022/02/20 09:11:20;;;;;;;4.18;1.42;;;;;;;12.74;60.51;100618.50;4992159;28;110090;-71
2022/02/20 09:13:48;;;;;;;3.65;1.60;;;;;;;12.76;60.61;100605.97;4995673;28;109853;-71
2022/02/20 09:16:16;;;;;;;6.40;1.60;;;;;;;12.80;60.49;100606.66;4993582;28;124136;-71
2022/02/20 09:18:45;;;;;;;5.32;1.40;;;;;;;12.83;60.57;100606.47;4993958;28;123739;-71
2022/02/20 09:21:12;;;;;;;6.65;1.27;;;;;;;12.86;60.47;100616.91;4994384;28;108969;-71
2022/02/20 09:23:40;;;;;;;5.32;1.73;;;;;;;12.88;60.75;100615.03;4994463;28;108109;-71
2022/02/20 09:26:07;;;;;;;3.92;1.60;;;;;;;12.92;60.65;100605.94;4991392;28;124745;-71
2022/02/20 09:28:35;;;;;;;4.90;1.73;;;;;;;12.94;60.74;100612.03;4992624;28;123849;-71
2022/02/20 09:31:03;;;;;;;5.72;1.80;;;;;;;12.98;60.62;100599.41;5010230;28;108519;-70
2022/02/20 09:33:30;;;;;;;7.53;2.03;;;;;;;13.00;60.59;100598.38;4995125;28;108837;-71
2022/02/20 09:35:58;;;;;;;7.82;2.00;;;;;;;13.04;60.56;100599.03;4991985;28;123921;-71
2022/02/20 09:38:25;;;;;;;11.82;2.30;;;;;;;13.08;60.46;100594.41;4995101;28;123754;-71
2022/02/20 09:40:52;;;;;;;8.68;1.85;;;;;;;13.11;60.37;100595.06;4992265;28;109645;-72
2022/02/20 09:43:19;;;;;;;7.72;1.88;;;;;;;13.16;60.68;100592.13;4994881;28;109205;-71
2022/02/20 09:45:51;;;;;;;7.25;1.83;;;;;;;13.19;60.64;100587.50;4993707;28;124601;-71
2022/02/20 09:48:18;;;;;;;10.60;2.40;;;;;;;13.22;60.45;100591.75;4992521;28;124131;-70
2022/02/20 09:50:45;;;;;;;7.60;1.75;;;;;;;13.26;60.52;100582.66;4992316;28;109581;-70
2022/02/20 09:53:14;;;;;;;8.82;2.22;;;;;;;13.29;60.53;100587.78;4994811;28;109043;-70
2022/02/20 09:55:46;;;;;;;10.02;1.95;;;;;;;13.36;60.57;100583.00;4992238;28;124078;-71
2022/02/20 09:58:15;;;;;;;12.13;2.00;;;;;;;13.39;60.54;100573.03;4991203;28;123902;-70
2022/02/20 10:01:07;;;;;;;7.50;1.70;;;;;;;13.47;60.69;100584.97;4993740;28;110382;-70
2022/02/20 10:03:37;;;;;;;11.35;1.92;;;;;;;13.52;60.49;100604.19;4993798;28;110168;-70
2022/02/20 10:06:09;;;;;;;13.43;2.10;;;;;;;13.57;60.29;100570.16;4992353;28;123890;-70
2022/02/20 10:08:44;;;;;;;7.13;1.85;;;;;;;13.62;60.33;100578.72;4993618;28;123384;-70
2022/02/20 10:11:18;;;;;;;12.63;2.30;;;;;;;13.67;60.17;100571.28;4993005;28;108095;-70
2022/02/20 10:13:53;;;;;;;13.60;2.13;;;;;;;13.72;60.07;100563.03;4995001;28;109076;-70
2022/02/20 10:16:30;;;;;;;7.65;1.85;;;;;;;13.74;60.08;100572.63;4977323;28;123771;-70
2022/02/20 10:19:01;;;;;;;11.43;2.30;;;;;;;13.77;59.94;100572.44;4995404;28;124700;-71
2022/02/20 10:22:04;;;;;;;8.60;1.80;;;;;;;13.79;59.84;100570.53;4971518;28;109763;-70
2022/02/20 10:25:00;;;;;;;;;;;;;;;13.80;59.60;100572.25;4995880;28;109080;-70
2022/02/20 10:27:53;;;;;;;6.45;1.70;;;;;;;13.81;59.50;100558.00;4994725;28;125232;-71
2022/02/20 10:30:30;;;;;;;11.40;2.13;;;;;;;13.83;59.56;100572.06;4992923;28;123096;-70
2022/02/20 10:33:03;;;;;;;11.40;2.20;;;;;;;13.84;59.55;100562.25;4994660;28;109601;-70
2022/02/20 10:35:35;;;;;;;9.63;1.80;;;;;;;13.88;59.49;100573.56;4992223;28;108846;-71
2022/02/20 10:38:14;;;;;;;13.10;2.30;;;;;;;13.90;59.48;100571.66;4992959;28;124850;-70
2022/02/20 10:40:44;;;;;;;12.88;2.22;;;;;;;13.92;59.37;100559.97;4992179;28;124574;-70
2022/02/20 10:43:31;;;;;;;9.35;2.17;;;;;;;13.94;59.33;100567.88;4994379;28;109275;-70
2022/02/20 10:46:20;;;;;;;12.20;2.00;;;;;;;13.96;59.20;100560.63;4993249;28;108726;-70
2022/02/20 10:48:52;;;;;;;12.90;2.08;;;;;;;13.97;58.89;100562.34;4991550;28;124115;-70
2022/02/20 10:51:20;;;;;;;11.85;2.00;;;;;;;13.98;59.12;100574.72;4991906;28;122882;-70
2022/02/20 10:53:50;;;;;;;11.45;2.00;;;;;;;14.00;59.06;100567.47;4994226;28;110116;-70
2022/02/20 10:56:17;;;;;;;11.82;2.47;;;;;;;14.01;59.12;100569.16;4992513;28;109765;-70
2022/02/20 10:58:49;;;;;;;10.02;2.03;;;;;;;14.02;58.98;100560.25;4991514;28;124267;-70
2022/02/20 11:01:26;;;;;;;14.52;2.28;;;;;;;14.02;58.65;100570.88;4993389;28;124267;-70
2022/02/20 11:04:02;;;;;;;14.52;2.22;;;;;;;14.04;58.98;100563.66;4993059;28;110430;-70
2022/02/20 11:06:31;;;;;;;11.38;2.22;;;;;;;14.05;58.81;100554.69;4992080;28;109341;-70
2022/02/20 11:08:59;;;;;;;9.02;2.47;;;;;;;14.07;58.78;100558.16;4991303;28;123957;-71
2022/02/20 11:11:42;;;;;;;6.97;1.90;;;;;;;14.08;58.75;100567.81;4992833;28;123870;-70
2022/02/20 11:14:14;;;;;;;14.15;2.53;;;;;;;14.08;58.74;100565.16;4994804;28;109012;-70
2022/02/20 11:16:48;;;;;;;12.77;2.30;;;;;;;14.10;58.80;100557.94;4994295;28;109002;-70
2022/02/20 11:19:20;;;;;;;13.63;2.78;;;;;;;14.13;58.96;100568.41;4991160;28;124295;-70
2022/02/20 11:21:51;;;;;;;13.70;2.17;;;;;;;14.16;58.87;100552.19;4992865;28;123513;-71
2022/02/20 11:24:20;;;;;;;12.00;2.22;;;;;;;14.18;58.73;100571.63;4993505;28;109018;-70
2022/02/20 11:26:48;;;;;;;11.68;2.08;;;;;;;14.18;58.94;100552.97;4993902;28;109210;-70
2022/02/20 11:29:15;;;;;;;11.25;2.30;;;;;;;14.18;58.90;100566.28;4993744;28;123969;-70
2022/02/20 11:31:44;;;;;;;11.90;2.00;;;;;;;14.18;58.93;100545.00;4990319;28;123781;-70
2022/02/20 11:34:12;;;;;;;14.25;2.72;;;;;;;14.19;58.96;100552.00;4994189;28;109169;-70
2022/02/20 11:36:53;;;;;;;11.25;2.42;;;;;;;14.19;59.00;100530.69;4991733;28;108973;-71
2022/02/20 11:39:22;;;;;;;13.10;2.60;;;;;;;14.19;58.91;100525.38;4993473;28;125359;-70
2022/02/20 11:42:14;;;;;;;9.20;2.28;;;;;;;14.19;59.01;100524.53;4989892;28;124351;-70